Marathon, WI

6:26 AM CST on November 14, 2019 (GMT -0600)
Granite Hill | | Change Station

Elev 1280 ft 44.95 °N, 89.80 °W | Updated 21 seconds ago

Overcast
Overcast
20.3 °F
Feels Like 20 °F
N
1.57
Wind Variable Wind from WSW
Gusts 2.5 mph

Today
High -- | Low -- °F
--% Chance of Precip.
Yesterday
High -- | Low -- °F
Precip. -- in
Pressure 30.17 in
Visibility 10.0 miles
Clouds Overcast 2800 ft
Windchill 20 °F
Dew Point 5 °F
Humidity 50%
Rainfall 0.00 in
Snow Depth Not available.
6:55 AM 4:31 PM
Waning Gibbous, 96% visible
METAR KAUW 141154Z AUTO 29005KT 10SM OVC028 M06/M10 A3009 RMK AO2 SLP216 70001 T10611100 11061 21067 53018
Pressure 30.17 in
Visibility 10.0 miles
Clouds Overcast 2800 ft
Windchill 20 °F
Dew Point 5 °F
Humidity 50%
Rainfall 0.00 in
Snow Depth Not available.
6:55 AM 4:31 PM
Waning Gibbous, 96% visible
METAR KAUW 141154Z AUTO 29005KT 10SM OVC028 M06/M10 A3009 RMK AO2 SLP216 70001 T10611100 11061 21067 53018

Get Severe Weather Alerts

Thanks for signing up!

Be on the lookout for a verification email in your inbox.

You'll start receiving the daily forecast at 6 AM.

×

10-Day Weather Forecast

Almanac

Astronomy

Nov. 14, 2019 Rise Set
Actual Time
Civil Twilight
Nautical Twilight
Astronomical Twilight
Moon
Length of Visible Light
Length of Day
Tomorrow will be .
, % of the Moon is Illuminated

Today's Extremes

State Highs State Lows

Community

WunderPhotos

Category 6

Welcome to Category 6. This is the collective home for Weather Underground's featured writeups by Dr. Jeff Masters (right), Bob Henson (left), Chris Burt, and other regular contributors.

Nearby

Air Quality

  Air Quality AQ Index Pollutant
Not available.

Snow Depth

Station Depth Elevation

Earthquake Activity

City Distance Mag. Time & Date
Minimum magnitude displayed is 2.5.

Coastal Water Temperatures

Place Temperature

Stations

Nearby Weather Stations

Station Location Temp. Windchill Dew Point Humidity Wind Precip. Elev Updated Type
                   

Watches & Warnings

There are currently no watches in effect.